Apple Valley, Idaho
Current Conditions -  °F | °C
As of 12:53 PM on Sunday 25 Jan 2015 (Local Time) from KONO Reporting Station
Haze Haze  
Wind Chill: 39°   Ceiling: 1500
Heat Index: 39°   Visibility: 6mi
Dew Point: 33°   Wind: 3mph
Humidity: 79%   Direction: 310°NW
Pressure: 30.5"   Gusts: NA
Location:  43.8067°N, 116.922°W
Report Text: KONO 251953Z AUTO 31003KT 6SM HZ OVC015 04/01 A3050 RMK AO2 SLP350 T00390006
Loading
Personal Weather Stations






























Interactive Weather Map New forecast layout! Learn more

10-Day Weather Forecast

Advertisements
Track Severe Weather on mobile